createdAt,value
2018-09-20T00:02:06.572Z,99.90
2018-09-20T00:04:34.638Z,99.90
2018-09-20T00:07:02.741Z,99.90
2018-09-20T00:09:30.792Z,99.90
2018-09-20T00:12:41.068Z,99.90
2018-09-20T00:15:09.140Z,99.90
2018-09-20T00:17:37.209Z,99.90
2018-09-20T00:20:05.920Z,99.90
2018-09-20T00:22:33.993Z,99.90
2018-09-20T00:25:02.052Z,99.90
2018-09-20T00:27:30.100Z,99.90
2018-09-20T00:29:58.156Z,99.90
2018-09-20T00:32:26.289Z,99.90
2018-09-20T00:34:54.690Z,99.90
2018-09-20T00:37:22.750Z,99.90
2018-09-20T00:39:50.804Z,99.90
2018-09-20T00:42:18.859Z,99.90
2018-09-20T00:44:46.916Z,99.90
2018-09-20T00:47:14.999Z,99.90
2018-09-20T00:49:43.061Z,99.90
2018-09-20T00:52:11.119Z,99.90
2018-09-20T00:54:39.176Z,99.90
2018-09-20T00:57:07.221Z,99.90
2018-09-20T00:59:35.285Z,99.90
2018-09-20T01:02:03.825Z,99.90
2018-09-20T01:04:31.892Z,99.90
2018-09-20T01:06:59.949Z,99.90
2018-09-20T01:09:28.005Z,99.90
2018-09-20T01:11:56.056Z,99.90
2018-09-20T01:14:24.135Z,99.90
2018-09-20T01:16:52.189Z,99.90
2018-09-20T01:19:20.236Z,99.90
2018-09-20T01:21:48.317Z,99.90
2018-09-20T01:24:16.424Z,99.90
2018-09-20T01:26:44.476Z,99.90
2018-09-20T01:29:12.539Z,99.90
2018-09-20T01:31:40.608Z,99.90
2018-09-20T01:34:08.672Z,99.90
2018-09-20T01:36:36.721Z,99.90
2018-09-20T01:39:09.554Z,99.90
2018-09-20T01:41:37.621Z,99.90
2018-09-20T01:44:05.665Z,99.90
2018-09-20T01:46:33.727Z,99.90
2018-09-20T01:49:01.799Z,99.90
2018-09-20T01:51:29.902Z,99.90
2018-09-20T01:53:57.957Z,99.90
2018-09-20T01:56:26.005Z,99.90
2018-09-20T01:58:54.098Z,99.90
2018-09-20T02:01:22.161Z,99.90
2018-09-20T02:03:50.264Z,99.90
2018-09-20T02:06:18.400Z,99.90
2018-09-20T02:08:46.458Z,99.90
2018-09-20T02:11:14.530Z,99.90
2018-09-20T02:13:42.588Z,99.90
2018-09-20T02:16:10.664Z,99.90
2018-09-20T02:18:38.725Z,99.90
2018-09-20T02:21:07.025Z,99.90
2018-09-20T02:23:35.081Z,99.90
2018-09-20T02:26:03.143Z,99.90
2018-09-20T02:28:31.201Z,99.90
2018-09-20T02:30:59.269Z,99.90
2018-09-20T02:33:27.329Z,99.90
2018-09-20T02:35:55.391Z,99.90
2018-09-20T02:38:23.453Z,99.90
2018-09-20T02:40:51.512Z,99.90
2018-09-20T02:43:19.572Z,99.90
2018-09-20T02:45:47.627Z,99.90
2018-09-20T02:48:15.697Z,99.90
2018-09-20T02:50:43.752Z,99.90
2018-09-20T02:53:11.810Z,99.90
2018-09-20T02:55:39.886Z,99.90
2018-09-20T02:58:07.973Z,99.90
2018-09-20T03:00:36.077Z,99.90
2018-09-20T03:03:04.276Z,99.90
2018-09-20T03:05:32.336Z,99.90
2018-09-20T03:08:00.408Z,99.90
2018-09-20T03:10:28.506Z,99.90
2018-09-20T03:12:56.569Z,99.90
2018-09-20T03:15:24.630Z,99.90
2018-09-20T03:17:52.697Z,99.90
2018-09-20T03:20:21.033Z,99.90
2018-09-20T03:22:49.114Z,99.90
2018-09-20T03:25:17.165Z,99.90
2018-09-20T03:27:45.237Z,99.90
2018-09-20T03:30:13.312Z,99.90
2018-09-20T03:32:41.342Z,99.90
2018-09-20T03:35:09.600Z,99.90
2018-09-20T03:37:37.660Z,99.90
2018-09-20T03:40:05.836Z,99.90
2018-09-20T03:42:33.893Z,99.90
2018-09-20T03:45:01.951Z,99.90
2018-09-20T03:47:30.056Z,99.90
2018-09-20T03:49:58.105Z,99.90
2018-09-20T03:52:26.163Z,99.90
2018-09-20T03:54:54.238Z,99.90
2018-09-20T03:57:22.294Z,99.90
2018-09-20T03:59:50.378Z,99.90
2018-09-20T04:02:18.429Z,99.90
2018-09-20T04:04:46.486Z,99.90
2018-09-20T04:07:14.540Z,99.90
2018-09-20T04:09:42.663Z,99.90
2018-09-20T04:12:10.648Z,99.90
2018-09-20T04:14:38.699Z,99.90
2018-09-20T04:17:06.785Z,99.90
2018-09-20T04:19:34.841Z,99.90
2018-09-20T04:22:02.900Z,99.90
2018-09-20T04:24:30.984Z,99.90
2018-09-20T04:26:59.051Z,99.90
2018-09-20T04:29:27.104Z,99.90
2018-09-20T04:31:55.220Z,99.90
2018-09-20T04:34:23.225Z,99.90
2018-09-20T04:36:51.309Z,99.90
2018-09-20T04:39:19.375Z,99.90
2018-09-20T04:41:47.425Z,99.90
2018-09-20T04:44:15.498Z,99.90
2018-09-20T04:46:43.552Z,99.90
2018-09-20T04:49:11.617Z,99.90
2018-09-20T04:51:39.669Z,99.90
2018-09-20T04:54:07.729Z,99.90
2018-09-20T04:56:35.865Z,99.90
2018-09-20T04:59:03.906Z,99.90
2018-09-20T05:01:31.957Z,99.90
2018-09-20T05:04:00.075Z,99.90
2018-09-20T05:06:28.093Z,99.90
2018-09-20T05:08:56.329Z,99.90
2018-09-20T05:11:24.460Z,99.90
2018-09-20T05:13:52.513Z,99.90
2018-09-20T05:16:20.585Z,99.90
2018-09-20T05:18:48.649Z,99.90
2018-09-20T05:21:16.720Z,99.90
2018-09-20T05:23:44.769Z,99.90
2018-09-20T05:26:12.845Z,99.90
2018-09-20T05:28:40.896Z,99.90
2018-09-20T05:31:08.966Z,99.90
2018-09-20T05:33:37.032Z,99.90
2018-09-20T05:36:05.089Z,99.90
2018-09-20T05:38:33.142Z,99.90
2018-09-20T05:41:01.195Z,99.90
2018-09-20T05:43:29.304Z,99.90
2018-09-20T05:45:57.315Z,99.90
2018-09-20T05:48:25.364Z,99.90
2018-09-20T05:50:53.476Z,99.90
2018-09-20T05:53:21.461Z,99.90
2018-09-20T05:55:49.516Z,99.90
2018-09-20T05:58:17.589Z,99.90
2018-09-20T06:00:45.657Z,99.90
2018-09-20T06:03:13.719Z,99.90
2018-09-20T06:05:41.819Z,99.90
2018-09-20T06:08:09.823Z,99.90
2018-09-20T06:10:37.942Z,99.90
2018-09-20T06:13:06.063Z,99.90
2018-09-20T06:15:34.097Z,99.90
2018-09-20T06:18:02.163Z,99.90
2018-09-20T06:20:30.221Z,99.90
2018-09-20T06:22:58.264Z,99.90
2018-09-20T06:25:26.336Z,99.90
2018-09-20T06:27:54.376Z,99.90
2018-09-20T06:30:22.424Z,99.90
2018-09-20T06:32:50.493Z,99.90
2018-09-20T06:35:19.256Z,99.90
2018-09-20T06:37:47.325Z,99.90
2018-09-20T06:40:15.377Z,99.90
2018-09-20T06:42:43.433Z,99.90
2018-09-20T06:45:11.476Z,99.90
2018-09-20T06:47:39.530Z,99.90
2018-09-20T06:50:07.589Z,99.90
2018-09-20T06:52:35.664Z,99.90
2018-09-20T06:55:03.720Z,99.90
2018-09-20T06:57:34.996Z,99.90
2018-09-20T07:00:04.004Z,99.90
2018-09-20T07:02:32.407Z,99.90
2018-09-20T07:05:00.481Z,99.90
2018-09-20T07:07:28.563Z,99.90
2018-09-20T07:09:56.620Z,98.30
2018-09-20T07:12:24.680Z,96.00
2018-09-20T07:14:52.816Z,94.20
2018-09-20T07:17:20.880Z,92.80
2018-09-20T07:19:48.938Z,90.90
2018-09-20T07:22:17.067Z,88.30
2018-09-20T07:24:45.261Z,85.30
2018-09-20T07:27:13.332Z,79.90
2018-09-20T07:29:41.398Z,76.30
2018-09-20T07:32:09.477Z,70.80
2018-09-20T07:34:37.528Z,66.40
2018-09-20T07:37:05.613Z,63.20
2018-09-20T07:39:33.789Z,62.10
2018-09-20T07:42:01.866Z,60.00
2018-09-20T07:44:29.920Z,59.20
2018-09-20T07:46:57.977Z,57.10
2018-09-20T07:49:26.025Z,57.10
2018-09-20T07:51:54.089Z,56.50
2018-09-20T07:54:22.132Z,55.60
2018-09-20T07:56:50.266Z,55.60
2018-09-20T07:59:18.302Z,54.50
2018-09-20T08:01:46.478Z,53.00
2018-09-20T08:04:14.669Z,53.00
2018-09-20T08:06:42.725Z,53.50
2018-09-20T08:09:12.069Z,52.60
2018-09-20T08:11:40.122Z,51.70
2018-09-20T08:14:08.183Z,51.70
2018-09-20T08:16:36.264Z,51.20
2018-09-20T08:19:04.381Z,50.30
2018-09-20T08:21:32.584Z,48.60
2018-09-20T08:24:00.628Z,48.20
2018-09-20T08:26:28.681Z,49.10
2018-09-20T08:28:56.768Z,49.50
2018-09-20T08:31:24.829Z,49.30
2018-09-20T08:33:52.890Z,49.70
2018-09-20T08:36:20.940Z,50.00
2018-09-20T08:38:49.000Z,48.10
2018-09-20T08:41:17.059Z,48.50
2018-09-20T08:43:45.148Z,46.70
2018-09-20T08:46:13.192Z,47.50
2018-09-20T08:48:41.257Z,47.80
2018-09-20T08:51:09.394Z,46.60
2018-09-20T08:53:37.390Z,47.70
2018-09-20T08:56:05.428Z,46.50
2018-09-20T08:58:33.825Z,45.80
2018-09-20T09:01:03.330Z,43.00
2018-09-20T09:03:31.734Z,44.20
2018-09-20T09:06:00.125Z,44.70
2018-09-20T09:08:28.178Z,44.30
2018-09-20T09:10:56.227Z,43.30
2018-09-20T09:13:24.281Z,43.50
2018-09-20T09:15:52.425Z,44.30
2018-09-20T09:18:20.481Z,42.00
2018-09-20T09:20:48.548Z,40.70
2018-09-20T09:23:16.648Z,40.00
2018-09-20T09:25:44.688Z,39.80
2018-09-20T09:28:12.770Z,39.40
2018-09-20T09:30:40.830Z,39.10
2018-09-20T09:33:08.891Z,38.60
2018-09-20T09:35:36.949Z,38.90
2018-09-20T09:38:05.014Z,38.10
2018-09-20T09:40:33.082Z,38.80
2018-09-20T09:43:01.146Z,36.90
2018-09-20T09:45:29.208Z,36.50
2018-09-20T09:47:57.320Z,37.20
2018-09-20T09:50:25.324Z,37.00
2018-09-20T09:52:53.392Z,37.70
2018-09-20T09:55:21.449Z,37.50
2018-09-20T09:57:52.868Z,37.90
2018-09-20T10:00:26.633Z,40.80
2018-09-20T10:02:54.877Z,40.30
2018-09-20T10:05:22.940Z,40.90
2018-09-20T10:07:51.000Z,42.30
2018-09-20T10:10:19.069Z,42.60
2018-09-20T10:12:47.120Z,43.70
2018-09-20T10:15:15.296Z,41.60
2018-09-20T10:17:43.358Z,40.90
2018-09-20T10:20:11.429Z,41.30
2018-09-20T10:22:39.544Z,41.70
2018-09-20T10:25:07.735Z,42.20
2018-09-20T10:27:35.780Z,41.80
2018-09-20T10:30:04.533Z,40.10
2018-09-20T10:32:32.717Z,38.80
2018-09-20T10:35:01.209Z,38.90
2018-09-20T10:37:29.278Z,38.40
2018-09-20T10:39:57.342Z,38.30
2018-09-20T10:42:25.405Z,36.20
2018-09-20T10:44:53.463Z,35.90
2018-09-20T10:47:21.569Z,36.20
2018-09-20T10:49:49.600Z,36.30
2018-09-20T10:52:17.657Z,36.80
2018-09-20T10:54:45.728Z,36.10
2018-09-20T10:57:13.789Z,35.90
2018-09-20T10:59:42.002Z,37.50
2018-09-20T11:02:10.028Z,37.50
2018-09-20T11:04:38.088Z,38.00
2018-09-20T11:07:06.150Z,37.10
2018-09-20T11:09:34.242Z,36.70
2018-09-20T11:12:02.272Z,36.40
2018-09-20T11:14:30.377Z,35.90
2018-09-20T11:16:58.442Z,34.50
2018-09-20T11:19:26.480Z,34.60
2018-09-20T11:21:54.575Z,34.10
2018-09-20T11:24:22.641Z,33.10
2018-09-20T11:26:50.699Z,34.20
2018-09-20T11:29:18.753Z,33.30
2018-09-20T11:31:46.820Z,32.90
2018-09-20T11:34:15.542Z,33.00
2018-09-20T11:36:43.592Z,34.20
2018-09-20T11:39:13.257Z,32.70
2018-09-20T11:41:41.540Z,32.40
2018-09-20T11:44:09.828Z,31.80
2018-09-20T11:46:38.055Z,32.10
2018-09-20T11:49:06.083Z,32.60
2018-09-20T11:51:34.144Z,32.00
2018-09-20T11:54:02.482Z,33.80
2018-09-20T11:56:30.532Z,32.50
2018-09-20T11:58:58.591Z,32.10
2018-09-20T12:01:26.719Z,33.00
2018-09-20T12:03:54.712Z,32.30
2018-09-20T12:06:22.777Z,33.00
2018-09-20T12:08:50.836Z,33.60
2018-09-20T12:11:18.951Z,34.10
2018-09-20T12:13:46.996Z,33.50
2018-09-20T12:16:15.068Z,32.80
2018-09-20T12:18:43.145Z,33.00
2018-09-20T12:21:11.213Z,33.30
2018-09-20T12:23:39.306Z,34.00
2018-09-20T12:26:07.361Z,34.80
2018-09-20T12:28:35.439Z,34.90
2018-09-20T12:31:03.497Z,34.50
2018-09-20T12:33:31.557Z,34.50
2018-09-20T12:35:59.692Z,33.50
2018-09-20T12:38:27.681Z,34.10
2018-09-20T12:40:55.744Z,34.30
2018-09-20T12:43:23.813Z,33.90
2018-09-20T12:45:51.892Z,32.80
2018-09-20T12:48:19.955Z,32.60
2018-09-20T12:50:48.004Z,33.30
2018-09-20T12:53:16.077Z,33.20
2018-09-20T12:55:44.149Z,35.10
2018-09-20T12:58:12.199Z,34.10
2018-09-20T13:00:40.297Z,36.20
2018-09-20T13:03:08.332Z,36.00
2018-09-20T13:05:36.391Z,36.90
2018-09-20T13:08:04.476Z,37.30
2018-09-20T13:10:32.541Z,36.40
2018-09-20T13:13:00.705Z,37.20
2018-09-20T13:15:28.700Z,37.40
2018-09-20T13:17:56.780Z,37.80
2018-09-20T13:20:24.872Z,38.80
2018-09-20T13:22:52.917Z,39.90
2018-09-20T13:25:21.058Z,40.40
2018-09-20T13:27:49.057Z,40.00
2018-09-20T13:30:17.113Z,40.40
2018-09-20T13:32:45.176Z,41.00
2018-09-20T13:35:13.243Z,41.50
2018-09-20T13:37:41.348Z,41.10
2018-09-20T13:40:09.396Z,42.40
2018-09-20T13:42:37.461Z,42.50
2018-09-20T13:45:05.834Z,42.60
2018-09-20T13:47:33.889Z,42.90
2018-09-20T13:50:01.979Z,42.70
2018-09-20T13:52:30.030Z,44.90
2018-09-20T13:54:58.109Z,45.20
2018-09-20T13:57:26.156Z,45.10
2018-09-20T13:59:54.221Z,45.30
2018-09-20T14:02:22.289Z,44.90
2018-09-20T14:04:50.357Z,45.50
2018-09-20T14:07:18.410Z,46.00
2018-09-20T14:09:46.473Z,46.70
2018-09-20T14:12:14.529Z,47.70
2018-09-20T14:14:42.613Z,46.60
2018-09-20T14:17:10.661Z,46.80
2018-09-20T14:19:38.724Z,47.70
2018-09-20T14:22:06.789Z,48.10
2018-09-20T14:24:34.844Z,47.40
2018-09-20T14:27:03.034Z,47.60
2018-09-20T14:29:31.078Z,46.40
2018-09-20T14:31:59.144Z,46.70
2018-09-20T14:34:27.202Z,45.70
2018-09-20T14:36:55.269Z,46.00
2018-09-20T14:39:23.363Z,46.50
2018-09-20T14:41:51.424Z,46.40
2018-09-20T14:44:19.540Z,45.50
2018-09-20T14:46:47.601Z,45.40
2018-09-20T14:49:15.679Z,46.90
2018-09-20T14:51:43.742Z,46.00
2018-09-20T14:54:11.781Z,46.50
2018-09-20T14:56:46.228Z,46.90
2018-09-20T14:59:14.281Z,47.00
2018-09-20T15:01:42.361Z,47.60
2018-09-20T15:04:10.421Z,47.80
2018-09-20T15:06:38.483Z,48.50
2018-09-20T15:09:09.420Z,48.70
2018-09-20T15:11:37.830Z,48.20
2018-09-20T15:14:06.222Z,49.40
2018-09-20T15:16:34.408Z,49.30
2018-09-20T15:19:02.514Z,48.90
2018-09-20T15:21:30.797Z,48.80
2018-09-20T15:23:59.088Z,49.90
2018-09-20T15:26:27.333Z,49.90
2018-09-20T15:28:55.570Z,50.60
2018-09-20T15:31:24.038Z,50.80
2018-09-20T15:33:52.485Z,50.50
2018-09-20T15:36:21.054Z,51.30
2018-09-20T15:38:49.828Z,50.80
2018-09-20T15:41:18.131Z,51.60
2018-09-20T15:43:46.765Z,51.60
2018-09-20T15:46:15.194Z,51.50
2018-09-20T15:48:43.776Z,51.50
2018-09-20T15:51:12.187Z,51.30
2018-09-20T15:53:40.265Z,51.10
2018-09-20T15:56:08.909Z,51.50
2018-09-20T15:58:36.952Z,50.70
2018-09-20T16:01:05.077Z,51.10
2018-09-20T16:03:33.145Z,52.00
2018-09-20T16:06:01.327Z,52.10
2018-09-20T16:08:29.304Z,52.10
2018-09-20T16:10:57.400Z,52.80
2018-09-20T16:13:25.459Z,52.40
2018-09-20T16:15:53.524Z,52.30
2018-09-20T16:18:21.589Z,51.90
2018-09-20T16:20:49.673Z,52.10
2018-09-20T16:23:17.753Z,52.40
2018-09-20T16:25:45.811Z,52.60
2018-09-20T16:28:33.053Z,53.50
2018-09-20T16:31:16.753Z,53.70
2018-09-20T16:33:58.912Z,54.40
2018-09-20T16:36:36.996Z,54.70
2018-09-20T16:39:13.018Z,55.20
2018-09-20T16:41:43.525Z,55.40
2018-09-20T16:44:11.636Z,56.40
2018-09-20T16:46:39.705Z,56.60
2018-09-20T16:49:07.765Z,56.20
2018-09-20T16:51:35.834Z,56.40
2018-09-20T16:54:03.892Z,56.30
2018-09-20T16:56:31.978Z,56.50
2018-09-20T16:59:00.075Z,56.80
2018-09-20T17:01:28.105Z,57.30
2018-09-20T17:03:56.165Z,57.70
2018-09-20T17:06:24.215Z,57.70
2018-09-20T17:08:52.505Z,57.90
2018-09-20T17:11:20.570Z,57.80
2018-09-20T17:13:48.778Z,57.90
2018-09-20T17:16:16.888Z,57.90
2018-09-20T17:18:44.884Z,58.00
2018-09-20T17:21:12.938Z,58.00
2018-09-20T17:23:41.040Z,58.70
2018-09-20T17:26:09.094Z,58.40
2018-09-20T17:28:37.189Z,58.30
2018-09-20T17:31:05.461Z,58.60
2018-09-20T17:33:33.545Z,59.40
2018-09-20T17:36:01.893Z,60.10
2018-09-20T17:38:31.060Z,60.90
2018-09-20T17:41:02.904Z,61.30
2018-09-20T17:43:41.497Z,62.90
2018-09-20T17:46:09.537Z,63.30
2018-09-20T17:48:37.837Z,63.30
2018-09-20T17:51:06.626Z,63.50
2018-09-20T17:53:34.957Z,64.60
2018-09-20T17:56:03.209Z,66.00
2018-09-20T17:58:31.841Z,68.20
2018-09-20T18:00:59.901Z,70.00
2018-09-20T18:03:28.017Z,70.70
2018-09-20T18:05:56.081Z,71.00
2018-09-20T18:08:24.169Z,73.40
2018-09-20T18:10:52.241Z,74.50
2018-09-20T18:13:20.340Z,74.10
2018-09-20T18:15:48.509Z,72.70
2018-09-20T18:18:16.615Z,72.30
2018-09-20T18:20:44.667Z,71.90
2018-09-20T18:23:13.174Z,71.90
2018-09-20T18:25:41.372Z,71.30
2018-09-20T18:28:09.957Z,71.30
2018-09-20T18:30:38.079Z,72.10
2018-09-20T18:33:06.153Z,72.20
2018-09-20T18:35:34.228Z,72.20
2018-09-20T18:38:02.282Z,72.10
2018-09-20T18:40:30.363Z,72.40
2018-09-20T18:42:58.384Z,72.40
2018-09-20T18:45:26.448Z,72.10
2018-09-20T18:47:54.512Z,72.10
2018-09-20T18:50:22.589Z,72.40
2018-09-20T18:52:50.655Z,73.40
2018-09-20T18:55:18.762Z,74.60
2018-09-20T18:57:46.805Z,74.80
2018-09-20T19:00:14.864Z,75.10
2018-09-20T19:02:42.925Z,75.30
2018-09-20T19:05:10.993Z,76.30
2018-09-20T19:07:39.058Z,77.10
2018-09-20T19:10:07.132Z,77.20
2018-09-20T19:12:35.206Z,82.00
2018-09-20T19:15:03.273Z,85.50
2018-09-20T19:17:31.314Z,91.20
2018-09-20T19:19:59.372Z,92.30
2018-09-20T19:22:27.444Z,92.90
2018-09-20T19:24:55.517Z,93.80
2018-09-20T19:27:23.630Z,94.10
2018-09-20T19:29:51.693Z,94.80
2018-09-20T19:32:19.749Z,95.70
2018-09-20T19:34:47.829Z,95.80
2018-09-20T19:37:15.894Z,96.30
2018-09-20T19:39:43.983Z,96.60
2018-09-20T19:42:12.068Z,96.60
2018-09-20T19:44:40.137Z,97.40
2018-09-20T19:47:08.202Z,97.20
2018-09-20T19:49:36.249Z,97.30
2018-09-20T19:52:04.375Z,97.30
2018-09-20T19:54:32.372Z,97.00
2018-09-20T19:57:00.455Z,97.00
2018-09-20T19:59:28.535Z,97.50
2018-09-20T20:01:56.614Z,97.30
2018-09-20T20:04:24.848Z,97.40
2018-09-20T20:06:52.930Z,97.60
2018-09-20T20:09:21.014Z,98.00
2018-09-20T20:11:49.061Z,99.60
2018-09-20T20:14:17.122Z,99.20
2018-09-20T20:16:45.194Z,98.70
2018-09-20T20:19:13.266Z,98.50
2018-09-20T20:21:41.361Z,98.30
2018-09-20T20:24:09.413Z,98.40
2018-09-20T20:26:37.601Z,98.40
2018-09-20T20:29:05.780Z,98.40
2018-09-20T20:31:33.858Z,98.90
2018-09-20T20:34:01.908Z,98.80
2018-09-20T20:36:30.072Z,99.40
2018-09-20T20:38:58.110Z,99.40
2018-09-20T20:41:26.167Z,99.90
2018-09-20T20:43:54.712Z,99.90
2018-09-20T20:46:22.916Z,99.60
2018-09-20T20:48:50.969Z,99.70
2018-09-20T20:51:19.594Z,99.90
2018-09-20T20:53:47.641Z,99.90
2018-09-20T20:56:15.726Z,99.90
2018-09-20T20:58:43.777Z,99.90
2018-09-20T21:01:17.376Z,99.90
2018-09-20T21:03:45.453Z,99.90
2018-09-20T21:06:13.537Z,99.90
2018-09-20T21:08:41.644Z,99.90
2018-09-20T21:11:09.900Z,99.90
2018-09-20T21:13:38.100Z,99.90
2018-09-20T21:16:06.373Z,99.90
2018-09-20T21:18:34.432Z,99.90
2018-09-20T21:21:02.488Z,99.90
2018-09-20T21:23:30.548Z,99.90
2018-09-20T21:25:58.621Z,99.90
2018-09-20T21:28:26.689Z,99.90
2018-09-20T21:30:54.777Z,99.90
2018-09-20T21:33:22.938Z,99.90
2018-09-20T21:35:50.994Z,99.90
2018-09-20T21:38:19.044Z,99.90
2018-09-20T21:40:47.121Z,99.90
2018-09-20T21:43:15.181Z,99.90
2018-09-20T21:45:43.237Z,99.90
2018-09-20T21:48:11.289Z,99.90
2018-09-20T21:50:39.349Z,99.90
2018-09-20T21:53:07.445Z,99.90
2018-09-20T21:55:35.493Z,99.90
2018-09-20T21:58:03.560Z,99.90
2018-09-20T22:00:31.609Z,99.90
2018-09-20T22:03:02.054Z,99.90
2018-09-20T22:05:30.940Z,99.90
2018-09-20T22:07:58.999Z,99.90
2018-09-20T22:10:27.069Z,99.90
2018-09-20T22:12:55.209Z,99.90
2018-09-20T22:15:24.813Z,99.90
2018-09-20T22:17:53.416Z,99.90
2018-09-20T22:20:22.021Z,99.90
2018-09-20T22:22:50.108Z,99.90
2018-09-20T22:25:18.144Z,99.90
2018-09-20T22:27:46.466Z,99.90
2018-09-20T22:30:14.770Z,99.90
2018-09-20T22:32:42.820Z,99.90
2018-09-20T22:35:10.885Z,99.90
2018-09-20T22:37:38.937Z,99.90
2018-09-20T22:40:07.025Z,99.90
2018-09-20T22:42:35.084Z,99.90
2018-09-20T22:45:03.784Z,99.90
2018-09-20T22:47:32.270Z,99.90
2018-09-20T22:50:00.339Z,99.90
2018-09-20T22:52:28.409Z,99.90
2018-09-20T22:54:56.489Z,99.90
2018-09-20T22:57:24.538Z,99.90
2018-09-20T22:59:52.593Z,99.90
2018-09-20T23:02:20.665Z,99.90
2018-09-20T23:04:48.742Z,99.90
2018-09-20T23:07:16.788Z,99.90
2018-09-20T23:09:44.854Z,99.90
2018-09-20T23:12:12.906Z,99.90
2018-09-20T23:14:40.981Z,99.90
2018-09-20T23:17:09.033Z,99.90
2018-09-20T23:19:37.084Z,99.90
2018-09-20T23:22:05.129Z,99.90
2018-09-20T23:24:33.217Z,99.90
2018-09-20T23:27:01.253Z,99.90
2018-09-20T23:29:29.313Z,99.90
2018-09-20T23:31:57.372Z,99.90
2018-09-20T23:34:25.432Z,99.90
2018-09-20T23:36:53.490Z,99.90
2018-09-20T23:39:21.557Z,99.90
2018-09-20T23:41:49.609Z,99.90
2018-09-20T23:44:17.665Z,99.90
2018-09-20T23:46:45.708Z,99.90
2018-09-20T23:49:13.756Z,99.90
2018-09-20T23:51:41.814Z,99.90
2018-09-20T23:54:09.864Z,99.90
2018-09-20T23:56:37.953Z,99.90
2018-09-20T23:59:06.013Z,99.90
